sensor_id;sensor_type;location;lat;lon;timestamp;P1;durP1;ratioP1;P2;durP2;ratioP2
52512;SDS011;38422;53.172;6.974;2023-12-04T00:00:49;20.02;;;11.93;;
52512;SDS011;38422;53.172;6.974;2023-12-04T00:03:15;20.67;;;12.15;;
52512;SDS011;38422;53.172;6.974;2023-12-04T00:05:43;20.98;;;12.05;;
52512;SDS011;38422;53.172;6.974;2023-12-04T00:08:09;19.73;;;11.82;;
52512;SDS011;38422;53.172;6.974;2023-12-04T00:10:36;18.37;;;11.47;;
52512;SDS011;38422;53.172;6.974;2023-12-04T00:13:02;19.95;;;12.30;;
52512;SDS011;38422;53.172;6.974;2023-12-04T00:15:27;19.10;;;11.68;;
52512;SDS011;38422;53.172;6.974;2023-12-04T00:17:53;18.88;;;11.82;;
52512;SDS011;38422;53.172;6.974;2023-12-04T00:20:18;18.60;;;11.98;;
52512;SDS011;38422;53.172;6.974;2023-12-04T00:22:45;19.17;;;12.48;;
52512;SDS011;38422;53.172;6.974;2023-12-04T00:25:10;21.38;;;12.55;;
52512;SDS011;38422;53.172;6.974;2023-12-04T00:27:36;18.10;;;11.93;;
52512;SDS011;38422;53.172;6.974;2023-12-04T00:30:02;18.20;;;11.73;;
52512;SDS011;38422;53.172;6.974;2023-12-04T00:32:32;20.42;;;12.02;;
52512;SDS011;38422;53.172;6.974;2023-12-04T00:34:57;20.30;;;11.75;;
52512;SDS011;38422;53.172;6.974;2023-12-04T00:37:23;22.10;;;12.20;;
52512;SDS011;38422;53.172;6.974;2023-12-04T00:39:49;19.92;;;11.73;;
52512;SDS011;38422;53.172;6.974;2023-12-04T00:42:14;20.67;;;12.95;;
52512;SDS011;38422;53.172;6.974;2023-12-04T00:44:40;19.52;;;11.98;;
52512;SDS011;38422;53.172;6.974;2023-12-04T00:47:06;20.17;;;11.88;;
52512;SDS011;38422;53.172;6.974;2023-12-04T00:49:31;22.58;;;12.23;;
52512;SDS011;38422;53.172;6.974;2023-12-04T00:51:57;20.77;;;12.88;;
52512;SDS011;38422;53.172;6.974;2023-12-04T00:54:23;21.00;;;12.75;;
52512;SDS011;38422;53.172;6.974;2023-12-04T00:56:48;18.63;;;11.48;;
52512;SDS011;38422;53.172;6.974;2023-12-04T00:59:14;20.42;;;12.10;;
52512;SDS011;38422;53.172;6.974;2023-12-04T01:01:40;20.30;;;12.45;;
52512;SDS011;38422;53.172;6.974;2023-12-04T01:04:05;19.77;;;12.30;;
52512;SDS011;38422;53.172;6.974;2023-12-04T01:06:31;20.33;;;12.25;;
52512;SDS011;38422;53.172;6.974;2023-12-04T01:08:57;19.13;;;11.15;;
52512;SDS011;38422;53.172;6.974;2023-12-04T01:11:22;21.20;;;12.13;;
52512;SDS011;38422;53.172;6.974;2023-12-04T01:13:49;21.20;;;12.15;;
52512;SDS011;38422;53.172;6.974;2023-12-04T01:16:15;21.58;;;12.25;;
52512;SDS011;38422;53.172;6.974;2023-12-04T01:18:42;21.13;;;12.48;;
52512;SDS011;38422;53.172;6.974;2023-12-04T01:21:08;20.10;;;12.43;;
52512;SDS011;38422;53.172;6.974;2023-12-04T01:23:34;21.20;;;12.50;;
52512;SDS011;38422;53.172;6.974;2023-12-04T01:26:01;22.77;;;12.77;;
52512;SDS011;38422;53.172;6.974;2023-12-04T01:28:27;21.37;;;12.97;;
52512;SDS011;38422;53.172;6.974;2023-12-04T01:30:52;22.08;;;12.32;;
52512;SDS011;38422;53.172;6.974;2023-12-04T01:33:18;20.77;;;12.68;;
52512;SDS011;38422;53.172;6.974;2023-12-04T01:35:44;21.25;;;12.60;;
52512;SDS011;38422;53.172;6.974;2023-12-04T01:38:09;19.58;;;12.00;;
52512;SDS011;38422;53.172;6.974;2023-12-04T01:40:35;19.27;;;12.23;;
52512;SDS011;38422;53.172;6.974;2023-12-04T01:43:01;20.45;;;12.70;;
52512;SDS011;38422;53.172;6.974;2023-12-04T01:45:27;22.45;;;13.45;;
52512;SDS011;38422;53.172;6.974;2023-12-04T01:47:53;21.30;;;13.10;;
52512;SDS011;38422;53.172;6.974;2023-12-04T01:50:19;20.35;;;12.40;;
52512;SDS011;38422;53.172;6.974;2023-12-04T01:52:45;21.13;;;12.30;;
52512;SDS011;38422;53.172;6.974;2023-12-04T01:55:12;22.07;;;12.87;;
52512;SDS011;38422;53.172;6.974;2023-12-04T01:57:39;20.98;;;12.50;;
52512;SDS011;38422;53.172;6.974;2023-12-04T02:00:06;20.42;;;12.57;;
52512;SDS011;38422;53.172;6.974;2023-12-04T02:02:38;21.42;;;12.90;;
52512;SDS011;38422;53.172;6.974;2023-12-04T02:05:05;21.52;;;13.05;;
52512;SDS011;38422;53.172;6.974;2023-12-04T02:07:32;20.92;;;12.70;;
52512;SDS011;38422;53.172;6.974;2023-12-04T02:09:59;21.90;;;13.23;;
52512;SDS011;38422;53.172;6.974;2023-12-04T02:12:24;22.52;;;13.70;;
52512;SDS011;38422;53.172;6.974;2023-12-04T02:14:51;21.65;;;12.65;;
52512;SDS011;38422;53.172;6.974;2023-12-04T02:17:17;23.27;;;14.00;;
52512;SDS011;38422;53.172;6.974;2023-12-04T02:19:44;20.42;;;12.32;;
52512;SDS011;38422;53.172;6.974;2023-12-04T02:22:10;20.08;;;12.43;;
52512;SDS011;38422;53.172;6.974;2023-12-04T02:24:36;22.63;;;14.05;;
52512;SDS011;38422;53.172;6.974;2023-12-04T02:27:18;19.58;;;13.18;;
52512;SDS011;38422;53.172;6.974;2023-12-04T02:29:52;20.00;;;12.90;;
52512;SDS011;38422;53.172;6.974;2023-12-04T02:32:21;22.17;;;12.27;;
52512;SDS011;38422;53.172;6.974;2023-12-04T02:37:15;22.52;;;13.45;;
52512;SDS011;38422;53.172;6.974;2023-12-04T02:39:42;20.57;;;12.67;;
52512;SDS011;38422;53.172;6.974;2023-12-04T02:42:08;21.33;;;13.02;;
52512;SDS011;38422;53.172;6.974;2023-12-04T02:44:34;23.33;;;14.10;;
52512;SDS011;38422;53.172;6.974;2023-12-04T02:47:00;21.15;;;12.93;;
52512;SDS011;38422;53.172;6.974;2023-12-04T02:49:26;20.95;;;13.10;;
52512;SDS011;38422;53.172;6.974;2023-12-04T02:51:51;21.23;;;12.82;;
52512;SDS011;38422;53.172;6.974;2023-12-04T02:54:17;19.35;;;12.55;;
52512;SDS011;38422;53.172;6.974;2023-12-04T02:56:43;19.83;;;12.57;;
52512;SDS011;38422;53.172;6.974;2023-12-04T02:59:08;21.65;;;13.63;;
52512;SDS011;38422;53.172;6.974;2023-12-04T03:01:34;21.30;;;12.90;;
52512;SDS011;38422;53.172;6.974;2023-12-04T03:04:00;20.88;;;13.18;;
52512;SDS011;38422;53.172;6.974;2023-12-04T03:06:25;20.70;;;12.50;;
52512;SDS011;38422;53.172;6.974;2023-12-04T03:08:51;20.05;;;12.23;;
52512;SDS011;38422;53.172;6.974;2023-12-04T03:11:17;20.13;;;12.38;;
52512;SDS011;38422;53.172;6.974;2023-12-04T03:13:42;20.70;;;12.73;;
52512;SDS011;38422;53.172;6.974;2023-12-04T03:16:15;18.38;;;11.75;;
52512;SDS011;38422;53.172;6.974;2023-12-04T03:18:42;20.50;;;12.88;;
52512;SDS011;38422;53.172;6.974;2023-12-04T03:21:08;21.73;;;13.35;;
52512;SDS011;38422;53.172;6.974;2023-12-04T03:23:33;19.75;;;11.68;;
52512;SDS011;38422;53.172;6.974;2023-12-04T03:25:59;21.20;;;12.45;;
52512;SDS011;38422;53.172;6.974;2023-12-04T03:28:25;23.42;;;12.85;;
52512;SDS011;38422;53.172;6.974;2023-12-04T03:30:50;23.92;;;13.48;;
52512;SDS011;38422;53.172;6.974;2023-12-04T03:33:19;20.85;;;12.75;;
52512;SDS011;38422;53.172;6.974;2023-12-04T03:35:44;22.52;;;13.20;;
52512;SDS011;38422;53.172;6.974;2023-12-04T03:38:10;21.17;;;12.70;;
52512;SDS011;38422;53.172;6.974;2023-12-04T03:40:36;23.40;;;13.05;;
52512;SDS011;38422;53.172;6.974;2023-12-04T03:43:01;22.33;;;13.52;;
52512;SDS011;38422;53.172;6.974;2023-12-04T03:45:27;21.25;;;13.10;;
52512;SDS011;38422;53.172;6.974;2023-12-04T03:47:53;22.50;;;13.18;;
52512;SDS011;38422;53.172;6.974;2023-12-04T03:50:19;20.10;;;12.70;;
52512;SDS011;38422;53.172;6.974;2023-12-04T03:52:44;23.90;;;14.30;;
52512;SDS011;38422;53.172;6.974;2023-12-04T03:55:10;21.65;;;12.98;;
52512;SDS011;38422;53.172;6.974;2023-12-04T03:57:36;22.10;;;13.93;;
52512;SDS011;38422;53.172;6.974;2023-12-04T04:00:02;22.20;;;13.15;;
52512;SDS011;38422;53.172;6.974;2023-12-04T04:02:28;23.38;;;13.68;;
52512;SDS011;38422;53.172;6.974;2023-12-04T04:04:54;20.70;;;13.23;;
52512;SDS011;38422;53.172;6.974;2023-12-04T04:07:20;21.05;;;12.90;;
52512;SDS011;38422;53.172;6.974;2023-12-04T04:09:46;20.55;;;13.25;;
52512;SDS011;38422;53.172;6.974;2023-12-04T04:12:11;22.58;;;13.60;;
52512;SDS011;38422;53.172;6.974;2023-12-04T04:14:37;20.58;;;12.85;;
52512;SDS011;38422;53.172;6.974;2023-12-04T04:17:03;22.92;;;13.30;;
52512;SDS011;38422;53.172;6.974;2023-12-04T04:19:29;21.48;;;13.68;;
52512;SDS011;38422;53.172;6.974;2023-12-04T04:21:54;23.08;;;13.27;;
52512;SDS011;38422;53.172;6.974;2023-12-04T04:24:20;23.60;;;12.95;;
52512;SDS011;38422;53.172;6.974;2023-12-04T04:26:46;21.88;;;12.73;;
52512;SDS011;38422;53.172;6.974;2023-12-04T04:29:12;22.35;;;13.32;;
52512;SDS011;38422;53.172;6.974;2023-12-04T04:31:38;21.73;;;13.10;;
52512;SDS011;38422;53.172;6.974;2023-12-04T04:34:04;22.13;;;13.38;;
52512;SDS011;38422;53.172;6.974;2023-12-04T04:36:29;24.77;;;13.90;;
52512;SDS011;38422;53.172;6.974;2023-12-04T04:38:55;23.35;;;13.55;;
52512;SDS011;38422;53.172;6.974;2023-12-04T04:41:21;22.65;;;13.68;;
52512;SDS011;38422;53.172;6.974;2023-12-04T04:43:46;23.08;;;13.75;;
52512;SDS011;38422;53.172;6.974;2023-12-04T04:46:12;22.63;;;12.95;;
52512;SDS011;38422;53.172;6.974;2023-12-04T04:48:38;19.92;;;12.50;;
52512;SDS011;38422;53.172;6.974;2023-12-04T04:51:05;22.07;;;13.37;;
52512;SDS011;38422;53.172;6.974;2023-12-04T04:53:30;22.83;;;12.63;;
52512;SDS011;38422;53.172;6.974;2023-12-04T04:55:56;23.15;;;13.70;;
52512;SDS011;38422;53.172;6.974;2023-12-04T04:58:22;22.05;;;12.88;;
52512;SDS011;38422;53.172;6.974;2023-12-04T05:00:47;22.33;;;13.20;;
52512;SDS011;38422;53.172;6.974;2023-12-04T05:03:13;21.55;;;12.75;;
52512;SDS011;38422;53.172;6.974;2023-12-04T05:05:39;21.38;;;12.70;;
52512;SDS011;38422;53.172;6.974;2023-12-04T05:08:04;22.27;;;12.60;;
52512;SDS011;38422;53.172;6.974;2023-12-04T05:10:30;22.95;;;13.05;;
52512;SDS011;38422;53.172;6.974;2023-12-04T05:12:56;21.98;;;13.38;;
52512;SDS011;38422;53.172;6.974;2023-12-04T05:15:21;20.52;;;12.52;;
52512;SDS011;38422;53.172;6.974;2023-12-04T05:17:47;20.52;;;12.82;;
52512;SDS011;38422;53.172;6.974;2023-12-04T05:20:13;21.25;;;12.38;;
52512;SDS011;38422;53.172;6.974;2023-12-04T05:22:39;20.60;;;12.85;;
52512;SDS011;38422;53.172;6.974;2023-12-04T05:25:05;20.25;;;11.60;;
52512;SDS011;38422;53.172;6.974;2023-12-04T05:27:31;21.55;;;12.73;;
52512;SDS011;38422;53.172;6.974;2023-12-04T05:29:57;20.40;;;12.50;;
52512;SDS011;38422;53.172;6.974;2023-12-04T05:32:23;21.60;;;13.07;;
52512;SDS011;38422;53.172;6.974;2023-12-04T05:34:48;22.02;;;12.38;;
52512;SDS011;38422;53.172;6.974;2023-12-04T05:37:14;22.40;;;12.45;;
52512;SDS011;38422;53.172;6.974;2023-12-04T05:39:41;20.90;;;12.90;;
52512;SDS011;38422;53.172;6.974;2023-12-04T05:42:07;20.30;;;12.07;;
52512;SDS011;38422;53.172;6.974;2023-12-04T05:44:33;20.40;;;12.45;;
52512;SDS011;38422;53.172;6.974;2023-12-04T05:46:59;21.40;;;12.65;;
52512;SDS011;38422;53.172;6.974;2023-12-04T05:49:25;21.67;;;13.18;;
52512;SDS011;38422;53.172;6.974;2023-12-04T05:51:51;22.20;;;12.95;;
52512;SDS011;38422;53.172;6.974;2023-12-04T05:54:17;22.17;;;12.88;;
52512;SDS011;38422;53.172;6.974;2023-12-04T05:56:42;21.95;;;13.00;;
52512;SDS011;38422;53.172;6.974;2023-12-04T05:59:08;19.35;;;12.55;;
52512;SDS011;38422;53.172;6.974;2023-12-04T06:01:34;22.48;;;13.25;;
52512;SDS011;38422;53.172;6.974;2023-12-04T06:03:59;20.70;;;13.18;;
52512;SDS011;38422;53.172;6.974;2023-12-04T06:06:25;23.15;;;13.07;;
52512;SDS011;38422;53.172;6.974;2023-12-04T06:08:52;20.80;;;12.73;;
52512;SDS011;38422;53.172;6.974;2023-12-04T06:11:17;22.88;;;13.45;;
52512;SDS011;38422;53.172;6.974;2023-12-04T06:13:43;21.92;;;12.68;;
52512;SDS011;38422;53.172;6.974;2023-12-04T06:16:09;21.73;;;12.82;;
52512;SDS011;38422;53.172;6.974;2023-12-04T06:18:35;22.00;;;12.85;;
52512;SDS011;38422;53.172;6.974;2023-12-04T06:21:00;21.85;;;13.40;;
52512;SDS011;38422;53.172;6.974;2023-12-04T06:23:26;23.80;;;14.75;;
52512;SDS011;38422;53.172;6.974;2023-12-04T06:25:52;23.77;;;14.10;;
52512;SDS011;38422;53.172;6.974;2023-12-04T06:28:18;22.65;;;14.02;;
52512;SDS011;38422;53.172;6.974;2023-12-04T06:30:44;22.17;;;12.95;;
52512;SDS011;38422;53.172;6.974;2023-12-04T06:33:10;22.80;;;13.32;;
52512;SDS011;38422;53.172;6.974;2023-12-04T06:38:07;19.80;;;12.40;;
52512;SDS011;38422;53.172;6.974;2023-12-04T06:40:33;21.83;;;12.93;;
52512;SDS011;38422;53.172;6.974;2023-12-04T06:43:00;19.05;;;11.93;;
52512;SDS011;38422;53.172;6.974;2023-12-04T06:45:26;21.08;;;12.27;;
52512;SDS011;38422;53.172;6.974;2023-12-04T06:47:52;21.20;;;13.32;;
52512;SDS011;38422;53.172;6.974;2023-12-04T06:50:19;22.08;;;13.23;;
52512;SDS011;38422;53.172;6.974;2023-12-04T06:52:45;20.42;;;12.80;;
52512;SDS011;38422;53.172;6.974;2023-12-04T06:55:11;20.63;;;12.55;;
52512;SDS011;38422;53.172;6.974;2023-12-04T06:57:37;18.98;;;11.88;;
52512;SDS011;38422;53.172;6.974;2023-12-04T07:00:03;19.95;;;12.25;;
52512;SDS011;38422;53.172;6.974;2023-12-04T07:02:31;18.83;;;11.85;;
52512;SDS011;38422;53.172;6.974;2023-12-04T07:04:57;19.98;;;12.43;;
52512;SDS011;38422;53.172;6.974;2023-12-04T07:07:23;18.40;;;11.48;;
52512;SDS011;38422;53.172;6.974;2023-12-04T07:09:48;22.70;;;11.73;;
52512;SDS011;38422;53.172;6.974;2023-12-04T07:12:14;19.17;;;11.57;;
52512;SDS011;38422;53.172;6.974;2023-12-04T07:14:40;18.60;;;11.70;;
52512;SDS011;38422;53.172;6.974;2023-12-04T07:17:06;19.80;;;11.98;;
52512;SDS011;38422;53.172;6.974;2023-12-04T07:19:32;19.52;;;11.05;;
52512;SDS011;38422;53.172;6.974;2023-12-04T07:21:58;18.35;;;12.05;;
52512;SDS011;38422;53.172;6.974;2023-12-04T07:24:24;19.00;;;11.65;;
52512;SDS011;38422;53.172;6.974;2023-12-04T07:26:51;19.90;;;11.23;;
52512;SDS011;38422;53.172;6.974;2023-12-04T07:29:17;16.85;;;10.88;;
52512;SDS011;38422;53.172;6.974;2023-12-04T07:31:42;19.13;;;11.68;;
52512;SDS011;38422;53.172;6.974;2023-12-04T07:34:09;16.85;;;10.85;;
52512;SDS011;38422;53.172;6.974;2023-12-04T07:36:34;19.00;;;11.88;;
52512;SDS011;38422;53.172;6.974;2023-12-04T07:39:00;18.15;;;10.65;;
52512;SDS011;38422;53.172;6.974;2023-12-04T07:41:26;18.13;;;10.57;;
52512;SDS011;38422;53.172;6.974;2023-12-04T07:43:52;20.13;;;10.93;;
52512;SDS011;38422;53.172;6.974;2023-12-04T07:46:17;17.02;;;10.93;;
52512;SDS011;38422;53.172;6.974;2023-12-04T07:48:43;17.20;;;10.60;;
52512;SDS011;38422;53.172;6.974;2023-12-04T07:51:10;18.20;;;10.18;;
52512;SDS011;38422;53.172;6.974;2023-12-04T07:53:36;16.70;;;10.27;;
52512;SDS011;38422;53.172;6.974;2023-12-04T07:56:02;16.02;;;9.85;;
52512;SDS011;38422;53.172;6.974;2023-12-04T07:58:30;15.88;;;10.32;;
52512;SDS011;38422;53.172;6.974;2023-12-04T08:00:57;16.45;;;9.63;;
52512;SDS011;38422;53.172;6.974;2023-12-04T08:03:23;17.50;;;10.20;;
52512;SDS011;38422;53.172;6.974;2023-12-04T08:05:51;16.15;;;9.98;;
52512;SDS011;38422;53.172;6.974;2023-12-04T08:08:17;13.95;;;9.38;;
52512;SDS011;38422;53.172;6.974;2023-12-04T08:10:43;14.90;;;9.00;;
52512;SDS011;38422;53.172;6.974;2023-12-04T08:13:09;16.25;;;8.98;;
52512;SDS011;38422;53.172;6.974;2023-12-04T08:15:34;14.43;;;8.75;;
52512;SDS011;38422;53.172;6.974;2023-12-04T08:18:00;14.75;;;8.90;;
52512;SDS011;38422;53.172;6.974;2023-12-04T08:20:26;12.80;;;8.25;;
52512;SDS011;38422;53.172;6.974;2023-12-04T08:22:52;14.18;;;8.70;;
52512;SDS011;38422;53.172;6.974;2023-12-04T08:25:17;13.10;;;8.80;;
52512;SDS011;38422;53.172;6.974;2023-12-04T08:27:43;13.32;;;8.30;;
52512;SDS011;38422;53.172;6.974;2023-12-04T08:30:09;13.05;;;8.27;;
52512;SDS011;38422;53.172;6.974;2023-12-04T08:32:35;13.32;;;8.07;;
52512;SDS011;38422;53.172;6.974;2023-12-04T08:35:00;12.95;;;8.50;;
52512;SDS011;38422;53.172;6.974;2023-12-04T08:37:26;14.60;;;8.82;;
52512;SDS011;38422;53.172;6.974;2023-12-04T08:39:52;12.05;;;8.13;;
52512;SDS011;38422;53.172;6.974;2023-12-04T08:42:18;12.90;;;7.97;;
52512;SDS011;38422;53.172;6.974;2023-12-04T08:44:44;13.15;;;8.02;;
52512;SDS011;38422;53.172;6.974;2023-12-04T08:47:12;12.55;;;7.93;;
52512;SDS011;38422;53.172;6.974;2023-12-04T08:49:39;12.32;;;7.97;;
52512;SDS011;38422;53.172;6.974;2023-12-04T08:52:09;12.98;;;8.10;;
52512;SDS011;38422;53.172;6.974;2023-12-04T08:54:35;13.45;;;8.23;;
52512;SDS011;38422;53.172;6.974;2023-12-04T08:57:04;13.43;;;8.45;;
52512;SDS011;38422;53.172;6.974;2023-12-04T08:59:30;12.25;;;8.13;;
52512;SDS011;38422;53.172;6.974;2023-12-04T09:01:55;11.43;;;7.82;;
52512;SDS011;38422;53.172;6.974;2023-12-04T09:04:21;13.40;;;8.13;;
52512;SDS011;38422;53.172;6.974;2023-12-04T09:06:47;12.32;;;7.72;;
52512;SDS011;38422;53.172;6.974;2023-12-04T09:09:12;12.48;;;8.32;;
52512;SDS011;38422;53.172;6.974;2023-12-04T09:11:41;12.82;;;8.20;;
52512;SDS011;38422;53.172;6.974;2023-12-04T09:14:07;12.77;;;8.57;;
52512;SDS011;38422;53.172;6.974;2023-12-04T09:16:33;11.43;;;7.30;;
52512;SDS011;38422;53.172;6.974;2023-12-04T09:18:59;12.10;;;8.35;;
52512;SDS011;38422;53.172;6.974;2023-12-04T09:21:25;13.00;;;8.18;;
52512;SDS011;38422;53.172;6.974;2023-12-04T09:23:51;13.10;;;7.97;;
52512;SDS011;38422;53.172;6.974;2023-12-04T09:26:17;12.68;;;8.40;;
52512;SDS011;38422;53.172;6.974;2023-12-04T09:28:46;12.50;;;8.23;;
52512;SDS011;38422;53.172;6.974;2023-12-04T09:31:12;11.80;;;7.80;;
52512;SDS011;38422;53.172;6.974;2023-12-04T09:33:38;13.15;;;8.10;;
52512;SDS011;38422;53.172;6.974;2023-12-04T09:36:04;11.93;;;7.82;;
52512;SDS011;38422;53.172;6.974;2023-12-04T09:38:29;15.15;;;8.00;;
52512;SDS011;38422;53.172;6.974;2023-12-04T09:40:57;11.43;;;7.82;;
52512;SDS011;38422;53.172;6.974;2023-12-04T09:43:25;13.18;;;7.93;;
52512;SDS011;38422;53.172;6.974;2023-12-04T09:45:51;11.75;;;7.53;;
52512;SDS011;38422;53.172;6.974;2023-12-04T09:48:18;11.85;;;7.43;;
52512;SDS011;38422;53.172;6.974;2023-12-04T09:50:46;12.13;;;8.10;;
52512;SDS011;38422;53.172;6.974;2023-12-04T09:53:12;10.57;;;7.55;;
52512;SDS011;38422;53.172;6.974;2023-12-04T09:55:38;12.15;;;7.85;;
52512;SDS011;38422;53.172;6.974;2023-12-04T09:58:05;12.48;;;7.30;;
52512;SDS011;38422;53.172;6.974;2023-12-04T10:00:31;12.40;;;7.60;;
52512;SDS011;38422;53.172;6.974;2023-12-04T10:02:57;12.02;;;7.82;;
52512;SDS011;38422;53.172;6.974;2023-12-04T10:05:24;10.98;;;7.55;;
52512;SDS011;38422;53.172;6.974;2023-12-04T10:07:50;10.80;;;7.15;;
52512;SDS011;38422;53.172;6.974;2023-12-04T10:10:16;11.98;;;7.55;;
52512;SDS011;38422;53.172;6.974;2023-12-04T10:12:43;11.43;;;7.47;;
52512;SDS011;38422;53.172;6.974;2023-12-04T10:15:11;11.47;;;7.47;;
52512;SDS011;38422;53.172;6.974;2023-12-04T10:17:38;13.50;;;7.65;;
52512;SDS011;38422;53.172;6.974;2023-12-04T10:20:09;11.57;;;7.30;;
52512;SDS011;38422;53.172;6.974;2023-12-04T10:22:55;11.77;;;7.18;;
52512;SDS011;38422;53.172;6.974;2023-12-04T10:25:23;12.07;;;7.50;;
52512;SDS011;38422;53.172;6.974;2023-12-04T10:27:51;10.73;;;6.97;;
52512;SDS011;38422;53.172;6.974;2023-12-04T10:30:27;11.20;;;7.30;;
52512;SDS011;38422;53.172;6.974;2023-12-04T10:32:54;9.77;;;6.97;;
52512;SDS011;38422;53.172;6.974;2023-12-04T10:35:21;10.52;;;7.10;;
52512;SDS011;38422;53.172;6.974;2023-12-04T10:37:48;11.27;;;7.35;;
52512;SDS011;38422;53.172;6.974;2023-12-04T10:40:27;11.30;;;7.20;;
52512;SDS011;38422;53.172;6.974;2023-12-04T10:45:40;10.65;;;7.13;;
52512;SDS011;38422;53.172;6.974;2023-12-04T10:48:07;9.40;;;6.38;;
52512;SDS011;38422;53.172;6.974;2023-12-04T10:50:36;9.23;;;6.47;;
52512;SDS011;38422;53.172;6.974;2023-12-04T10:53:10;11.02;;;6.65;;
52512;SDS011;38422;53.172;6.974;2023-12-04T10:55:37;9.52;;;6.05;;
52512;SDS011;38422;53.172;6.974;2023-12-04T10:58:05;10.30;;;7.00;;
52512;SDS011;38422;53.172;6.974;2023-12-04T11:03:01;9.32;;;6.20;;
52512;SDS011;38422;53.172;6.974;2023-12-04T11:05:57;11.10;;;6.95;;
52512;SDS011;38422;53.172;6.974;2023-12-04T11:08:25;9.20;;;6.25;;
52512;SDS011;38422;53.172;6.974;2023-12-04T11:10:56;10.10;;;6.60;;
52512;SDS011;38422;53.172;6.974;2023-12-04T11:13:30;10.63;;;6.75;;
52512;SDS011;38422;53.172;6.974;2023-12-04T11:15:59;8.90;;;6.28;;
52512;SDS011;38422;53.172;6.974;2023-12-04T11:18:27;9.93;;;6.40;;
52512;SDS011;38422;53.172;6.974;2023-12-04T11:20:58;10.10;;;6.63;;
52512;SDS011;38422;53.172;6.974;2023-12-04T11:23:29;10.77;;;6.68;;
52512;SDS011;38422;53.172;6.974;2023-12-04T11:28:22;9.95;;;6.53;;
52512;SDS011;38422;53.172;6.974;2023-12-04T11:30:49;10.88;;;6.82;;
52512;SDS011;38422;53.172;6.974;2023-12-04T11:33:16;9.40;;;5.97;;
52512;SDS011;38422;53.172;6.974;2023-12-04T11:35:43;9.77;;;6.40;;
52512;SDS011;38422;53.172;6.974;2023-12-04T11:38:12;11.13;;;6.60;;
52512;SDS011;38422;53.172;6.974;2023-12-04T11:40:40;9.38;;;6.18;;
52512;SDS011;38422;53.172;6.974;2023-12-04T11:43:26;9.75;;;6.68;;
52512;SDS011;38422;53.172;6.974;2023-12-04T11:45:53;9.23;;;6.32;;
52512;SDS011;38422;53.172;6.974;2023-12-04T11:48:32;10.05;;;6.32;;
52512;SDS011;38422;53.172;6.974;2023-12-04T11:50:59;10.70;;;6.30;;
52512;SDS011;38422;53.172;6.974;2023-12-04T11:53:25;9.68;;;6.35;;
52512;SDS011;38422;53.172;6.974;2023-12-04T11:55:52;9.80;;;6.03;;
52512;SDS011;38422;53.172;6.974;2023-12-04T11:58:22;8.27;;;5.72;;
52512;SDS011;38422;53.172;6.974;2023-12-04T12:00:47;9.25;;;6.28;;
52512;SDS011;38422;53.172;6.974;2023-12-04T12:03:14;9.30;;;6.07;;
52512;SDS011;38422;53.172;6.974;2023-12-04T12:05:40;7.97;;;5.65;;
52512;SDS011;38422;53.172;6.974;2023-12-04T12:08:07;10.07;;;6.13;;
52512;SDS011;38422;53.172;6.974;2023-12-04T12:10:33;10.07;;;6.00;;
52512;SDS011;38422;53.172;6.974;2023-12-04T12:13:00;9.95;;;6.55;;
52512;SDS011;38422;53.172;6.974;2023-12-04T12:15:26;9.20;;;6.13;;
52512;SDS011;38422;53.172;6.974;2023-12-04T12:17:52;9.65;;;6.32;;
52512;SDS011;38422;53.172;6.974;2023-12-04T12:20:18;9.13;;;6.13;;
52512;SDS011;38422;53.172;6.974;2023-12-04T12:22:48;9.90;;;6.57;;
52512;SDS011;38422;53.172;6.974;2023-12-04T12:25:14;8.05;;;5.72;;
52512;SDS011;38422;53.172;6.974;2023-12-04T12:27:40;9.13;;;6.20;;
52512;SDS011;38422;53.172;6.974;2023-12-04T12:30:07;9.43;;;6.28;;
52512;SDS011;38422;53.172;6.974;2023-12-04T12:32:33;8.25;;;6.00;;
52512;SDS011;38422;53.172;6.974;2023-12-04T12:35:00;9.57;;;6.22;;
52512;SDS011;38422;53.172;6.974;2023-12-04T12:37:26;9.98;;;6.60;;
52512;SDS011;38422;53.172;6.974;2023-12-04T12:39:52;9.10;;;6.03;;
52512;SDS011;38422;53.172;6.974;2023-12-04T12:42:25;9.27;;;6.07;;
52512;SDS011;38422;53.172;6.974;2023-12-04T12:44:52;9.40;;;6.40;;
52512;SDS011;38422;53.172;6.974;2023-12-04T12:47:19;9.82;;;6.47;;
52512;SDS011;38422;53.172;6.974;2023-12-04T12:49:45;8.63;;;5.82;;
52512;SDS011;38422;53.172;6.974;2023-12-04T12:52:11;9.95;;;6.53;;
52512;SDS011;38422;53.172;6.974;2023-12-04T12:54:37;10.30;;;6.60;;
52512;SDS011;38422;53.172;6.974;2023-12-04T12:57:04;9.27;;;6.28;;
52512;SDS011;38422;53.172;6.974;2023-12-04T12:59:30;10.30;;;6.50;;
52512;SDS011;38422;53.172;6.974;2023-12-04T13:01:56;10.27;;;6.63;;
52512;SDS011;38422;53.172;6.974;2023-12-04T13:04:25;8.95;;;6.25;;
52512;SDS011;38422;53.172;6.974;2023-12-04T13:06:51;10.57;;;7.13;;
52512;SDS011;38422;53.172;6.974;2023-12-04T13:09:17;11.25;;;7.07;;
52512;SDS011;38422;53.172;6.974;2023-12-04T13:11:47;9.57;;;6.25;;
52512;SDS011;38422;53.172;6.974;2023-12-04T13:14:14;9.77;;;6.70;;
52512;SDS011;38422;53.172;6.974;2023-12-04T13:16:39;10.50;;;6.50;;
52512;SDS011;38422;53.172;6.974;2023-12-04T13:19:05;9.50;;;6.22;;
52512;SDS011;38422;53.172;6.974;2023-12-04T13:21:31;9.23;;;6.28;;
52512;SDS011;38422;53.172;6.974;2023-12-04T13:23:57;8.88;;;6.05;;
52512;SDS011;38422;53.172;6.974;2023-12-04T13:26:22;9.52;;;6.55;;
52512;SDS011;38422;53.172;6.974;2023-12-04T13:28:48;9.15;;;6.50;;
52512;SDS011;38422;53.172;6.974;2023-12-04T13:31:14;9.02;;;6.25;;
52512;SDS011;38422;53.172;6.974;2023-12-04T13:33:40;9.20;;;6.25;;
52512;SDS011;38422;53.172;6.974;2023-12-04T13:36:08;8.52;;;5.57;;
52512;SDS011;38422;53.172;6.974;2023-12-04T13:38:34;9.52;;;6.30;;
52512;SDS011;38422;53.172;6.974;2023-12-04T13:41:00;9.25;;;6.35;;
52512;SDS011;38422;53.172;6.974;2023-12-04T13:43:43;9.30;;;6.07;;
52512;SDS011;38422;53.172;6.974;2023-12-04T13:46:15;9.65;;;6.60;;
52512;SDS011;38422;53.172;6.974;2023-12-04T13:48:41;9.43;;;6.60;;
52512;SDS011;38422;53.172;6.974;2023-12-04T13:51:09;9.10;;;6.20;;
52512;SDS011;38422;53.172;6.974;2023-12-04T13:53:35;11.23;;;6.70;;
52512;SDS011;38422;53.172;6.974;2023-12-04T13:56:04;9.18;;;6.22;;
52512;SDS011;38422;53.172;6.974;2023-12-04T13:58:36;9.75;;;6.45;;
52512;SDS011;38422;53.172;6.974;2023-12-04T14:01:10;9.85;;;6.28;;
52512;SDS011;38422;53.172;6.974;2023-12-04T14:03:42;8.82;;;6.43;;
52512;SDS011;38422;53.172;6.974;2023-12-04T14:06:09;9.23;;;6.60;;
52512;SDS011;38422;53.172;6.974;2023-12-04T14:08:36;8.88;;;6.28;;
52512;SDS011;38422;53.172;6.974;2023-12-04T14:11:02;10.50;;;8.02;;
52512;SDS011;38422;53.172;6.974;2023-12-04T14:13:28;10.60;;;6.65;;
52512;SDS011;38422;53.172;6.974;2023-12-04T14:15:55;8.82;;;6.28;;
52512;SDS011;38422;53.172;6.974;2023-12-04T14:18:22;10.30;;;7.00;;
52512;SDS011;38422;53.172;6.974;2023-12-04T14:20:48;9.93;;;6.70;;
52512;SDS011;38422;53.172;6.974;2023-12-04T14:23:14;8.55;;;6.03;;
52512;SDS011;38422;53.172;6.974;2023-12-04T14:25:40;10.38;;;6.72;;
52512;SDS011;38422;53.172;6.974;2023-12-04T14:28:06;11.05;;;7.28;;
52512;SDS011;38422;53.172;6.974;2023-12-04T14:30:32;9.82;;;6.78;;
52512;SDS011;38422;53.172;6.974;2023-12-04T14:32:58;10.05;;;6.75;;
52512;SDS011;38422;53.172;6.974;2023-12-04T14:35:24;9.85;;;6.90;;
52512;SDS011;38422;53.172;6.974;2023-12-04T14:37:49;11.63;;;7.25;;
52512;SDS011;38422;53.172;6.974;2023-12-04T14:40:15;10.07;;;6.80;;